createdAt,value
2017-01-30T00:00:09.091Z,0
2017-01-30T00:00:49.594Z,0
2017-01-30T00:01:30.100Z,0
2017-01-30T00:02:10.607Z,0
2017-01-30T00:02:51.133Z,0
2017-01-30T00:03:31.591Z,0
2017-01-30T00:04:12.153Z,0
2017-01-30T00:04:52.593Z,0
2017-01-30T00:05:33.155Z,0
2017-01-30T00:06:13.582Z,0
2017-01-30T00:06:54.110Z,0
2017-01-30T00:07:34.760Z,0
2017-01-30T00:08:15.310Z,0
2017-01-30T00:08:55.821Z,0
2017-01-30T00:09:36.286Z,0
2017-01-30T00:10:16.769Z,0
2017-01-30T00:10:57.246Z,0
2017-01-30T00:11:37.707Z,0
2017-01-30T00:12:18.221Z,0
2017-01-30T00:12:58.726Z,0
2017-01-30T00:13:39.311Z,0
2017-01-30T00:14:19.756Z,0
2017-01-30T00:15:00.239Z,0
2017-01-30T00:15:40.711Z,0
2017-01-30T00:16:21.224Z,0
2017-01-30T00:17:01.720Z,0
2017-01-30T00:17:42.216Z,0
2017-01-30T00:18:22.707Z,0
2017-01-30T00:19:03.186Z,0
2017-01-30T00:19:43.742Z,0
2017-01-30T00:20:24.230Z,0
2017-01-30T00:21:04.724Z,0
2017-01-30T00:21:45.232Z,0
2017-01-30T00:22:25.709Z,0
2017-01-30T00:23:06.210Z,0
2017-01-30T00:23:46.688Z,0
2017-01-30T00:24:27.209Z,0
2017-01-30T00:25:07.684Z,0
2017-01-30T00:25:48.182Z,0
2017-01-30T00:26:28.679Z,0
2017-01-30T00:27:09.183Z,0
2017-01-30T00:27:49.680Z,0
2017-01-30T00:28:30.147Z,0
2017-01-30T00:29:10.645Z,0
2017-01-30T00:29:51.134Z,0
2017-01-30T00:30:31.678Z,0
2017-01-30T00:31:12.161Z,0
2017-01-30T00:31:52.669Z,0
2017-01-30T00:32:33.123Z,0
2017-01-30T00:33:13.621Z,0
2017-01-30T00:33:54.147Z,0
2017-01-30T00:34:34.607Z,0
2017-01-30T00:35:15.095Z,0
2017-01-30T00:35:55.569Z,0
2017-01-30T00:36:36.062Z,0
2017-01-30T00:37:16.572Z,0
2017-01-30T00:37:57.026Z,0
2017-01-30T00:38:37.546Z,0
2017-01-30T00:39:18.002Z,0
2017-01-30T00:39:58.513Z,0
2017-01-30T00:40:38.953Z,0
2017-01-30T00:41:19.448Z,0
2017-01-30T00:41:59.916Z,0
2017-01-30T00:42:40.429Z,0
2017-01-30T00:43:20.931Z,0
2017-01-30T00:44:01.425Z,0
2017-01-30T00:44:41.915Z,0
2017-01-30T00:45:22.377Z,0
2017-01-30T00:46:02.899Z,0
2017-01-30T00:46:43.391Z,0
2017-01-30T00:47:23.863Z,0
2017-01-30T00:48:04.344Z,0
2017-01-30T00:48:44.824Z,0
2017-01-30T00:49:25.347Z,0
2017-01-30T00:50:05.781Z,0
2017-01-30T00:50:46.270Z,0
2017-01-30T00:51:26.748Z,0
2017-01-30T00:52:07.254Z,0
2017-01-30T00:52:47.723Z,0
2017-01-30T00:53:28.164Z,0
2017-01-30T00:54:08.636Z,0
2017-01-30T00:54:49.155Z,0
2017-01-30T00:55:29.650Z,0
2017-01-30T00:56:10.138Z,0
2017-01-30T00:56:50.628Z,0
2017-01-30T00:57:31.111Z,0
2017-01-30T00:58:11.622Z,0
2017-01-30T00:58:52.116Z,0
2017-01-30T00:59:32.593Z,0
2017-01-30T01:00:13.074Z,0
2017-01-30T01:00:53.561Z,0
2017-01-30T01:01:34.099Z,0
2017-01-30T01:02:14.575Z,0
2017-01-30T01:02:55.071Z,0
2017-01-30T01:03:35.557Z,0
2017-01-30T01:04:16.058Z,0
2017-01-30T01:04:56.530Z,0
2017-01-30T01:05:37.031Z,0
2017-01-30T01:06:17.506Z,0
2017-01-30T01:06:58.027Z,0
2017-01-30T01:07:38.536Z,0
2017-01-30T01:08:18.996Z,0
2017-01-30T01:08:59.481Z,0
2017-01-30T01:09:39.982Z,0
2017-01-30T01:10:20.547Z,0
2017-01-30T01:11:01.050Z,0
2017-01-30T01:11:41.498Z,0
2017-01-30T01:12:21.993Z,0
2017-01-30T01:13:02.533Z,0
2017-01-30T01:13:43.024Z,0
2017-01-30T01:14:23.439Z,0
2017-01-30T01:15:03.966Z,0
2017-01-30T01:15:44.463Z,0
2017-01-30T01:16:24.947Z,0
2017-01-30T01:17:05.432Z,0
2017-01-30T01:17:45.942Z,0
2017-01-30T01:18:26.418Z,0
2017-01-30T01:19:06.926Z,0
2017-01-30T01:19:47.456Z,0
2017-01-30T01:20:27.926Z,0
2017-01-30T01:21:08.415Z,0
2017-01-30T01:21:48.917Z,0
2017-01-30T01:22:29.396Z,0
2017-01-30T01:23:09.891Z,0
2017-01-30T01:23:50.342Z,0
2017-01-30T01:24:30.869Z,0
2017-01-30T01:25:11.348Z,0
2017-01-30T01:25:51.837Z,0
2017-01-30T01:26:32.440Z,0
2017-01-30T01:27:12.818Z,0
2017-01-30T01:27:53.322Z,0
2017-01-30T01:28:33.857Z,0
2017-01-30T01:29:14.304Z,0
2017-01-30T01:29:54.834Z,0
2017-01-30T01:30:35.358Z,0
2017-01-30T01:31:15.795Z,0
2017-01-30T01:31:56.250Z,0
2017-01-30T01:32:36.749Z,0
2017-01-30T01:33:17.243Z,0
2017-01-30T01:33:57.734Z,0
2017-01-30T01:34:38.206Z,0
2017-01-30T01:35:18.694Z,0
2017-01-30T01:35:59.190Z,0
2017-01-30T01:36:39.685Z,0
2017-01-30T01:37:20.182Z,0
2017-01-30T01:38:00.662Z,0
2017-01-30T01:38:41.186Z,0
2017-01-30T01:39:21.662Z,0
2017-01-30T01:40:02.172Z,0
2017-01-30T01:40:42.708Z,0
2017-01-30T01:41:23.237Z,0
2017-01-30T01:42:03.732Z,0
2017-01-30T01:42:44.174Z,0
2017-01-30T01:43:24.679Z,0
2017-01-30T01:44:05.141Z,0
2017-01-30T01:44:45.621Z,0
2017-01-30T01:45:26.122Z,0
2017-01-30T01:46:06.584Z,0
2017-01-30T01:46:47.120Z,0
2017-01-30T01:47:27.581Z,0
2017-01-30T01:48:08.039Z,0
2017-01-30T01:48:48.544Z,0
2017-01-30T01:49:29.028Z,0
2017-01-30T01:50:09.540Z,0
2017-01-30T01:50:50.020Z,0
2017-01-30T01:51:30.486Z,0
2017-01-30T01:52:11.019Z,0
2017-01-30T01:52:51.491Z,0
2017-01-30T01:53:31.969Z,0
2017-01-30T01:54:12.443Z,0
2017-01-30T01:54:53.092Z,0
2017-01-30T01:55:33.456Z,0
2017-01-30T01:56:14.000Z,0
2017-01-30T01:56:54.476Z,0
2017-01-30T01:57:34.962Z,0
2017-01-30T01:58:15.431Z,0
2017-01-30T01:58:55.897Z,0
2017-01-30T01:59:36.401Z,0
2017-01-30T02:00:16.919Z,0
2017-01-30T02:00:57.410Z,0
2017-01-30T02:01:37.887Z,0
2017-01-30T02:02:18.358Z,0
2017-01-30T02:02:58.881Z,0
2017-01-30T02:03:39.348Z,0
2017-01-30T02:04:19.823Z,0
2017-01-30T02:05:00.312Z,0
2017-01-30T02:05:40.810Z,0
2017-01-30T02:06:21.316Z,0
2017-01-30T02:07:01.796Z,0
2017-01-30T02:07:42.318Z,0
2017-01-30T02:08:22.806Z,0
2017-01-30T02:09:03.291Z,0
2017-01-30T02:09:43.771Z,0
2017-01-30T02:10:24.311Z,0
2017-01-30T02:11:04.797Z,0
2017-01-30T02:11:45.264Z,0
2017-01-30T02:12:25.759Z,0
2017-01-30T02:13:06.276Z,0
2017-01-30T02:13:46.762Z,0
2017-01-30T02:14:27.231Z,0
2017-01-30T02:15:07.712Z,0
2017-01-30T02:15:48.216Z,0
2017-01-30T02:16:28.700Z,0
2017-01-30T02:17:09.223Z,0
2017-01-30T02:17:49.694Z,0
2017-01-30T02:18:30.208Z,0
2017-01-30T02:19:10.680Z,0
2017-01-30T02:19:51.171Z,0
2017-01-30T02:20:31.662Z,0
2017-01-30T02:21:12.117Z,0
2017-01-30T02:21:52.659Z,0
2017-01-30T02:22:33.043Z,0
2017-01-30T02:23:13.596Z,0
2017-01-30T02:23:54.057Z,0
2017-01-30T02:24:34.575Z,0
2017-01-30T02:25:15.089Z,0
2017-01-30T02:25:55.567Z,0
2017-01-30T02:26:36.024Z,0
2017-01-30T02:27:16.525Z,0
2017-01-30T02:27:56.999Z,0
2017-01-30T02:28:37.488Z,0
2017-01-30T02:29:17.973Z,0
2017-01-30T02:31:56.128Z,0
2017-01-30T02:32:36.648Z,0
2017-01-30T02:33:17.125Z,0
2017-01-30T02:33:57.644Z,0
2017-01-30T02:34:38.129Z,0
2017-01-30T02:35:18.654Z,0
2017-01-30T02:35:59.153Z,0
2017-01-30T02:36:39.680Z,0
2017-01-30T02:37:20.174Z,0
2017-01-30T02:38:00.743Z,0
2017-01-30T02:38:41.255Z,0
2017-01-30T02:39:21.733Z,0
2017-01-30T02:40:02.226Z,0
2017-01-30T02:40:42.741Z,0
2017-01-30T02:41:23.213Z,0
2017-01-30T02:42:03.719Z,0
2017-01-30T02:42:44.174Z,0
2017-01-30T02:43:24.702Z,0
2017-01-30T02:44:05.188Z,0
2017-01-30T02:44:45.642Z,0
2017-01-30T02:45:26.129Z,0
2017-01-30T02:46:06.633Z,0
2017-01-30T02:46:47.125Z,0
2017-01-30T02:47:27.604Z,0
2017-01-30T02:48:08.100Z,0
2017-01-30T02:50:41.661Z,0
2017-01-30T02:51:22.144Z,0
2017-01-30T02:52:02.654Z,0
2017-01-30T02:52:43.154Z,0
2017-01-30T02:53:23.681Z,0
2017-01-30T02:54:04.180Z,0
2017-01-30T02:54:44.617Z,0
2017-01-30T02:55:25.246Z,0
2017-01-30T02:56:05.727Z,0
2017-01-30T02:56:46.267Z,0
2017-01-30T02:57:26.760Z,0
2017-01-30T02:58:07.250Z,0
2017-01-30T02:58:47.707Z,0
2017-01-30T02:59:28.202Z,0
2017-01-30T03:00:08.725Z,0
2017-01-30T03:00:49.174Z,0
2017-01-30T03:01:29.689Z,0
2017-01-30T03:02:10.231Z,0
2017-01-30T03:02:50.687Z,0
2017-01-30T03:03:31.185Z,0
2017-01-30T03:04:11.732Z,0
2017-01-30T03:04:52.218Z,0
2017-01-30T03:05:32.720Z,0
2017-01-30T03:06:13.201Z,0
2017-01-30T03:06:53.715Z,0
2017-01-30T03:07:34.228Z,0
2017-01-30T03:08:14.697Z,0
2017-01-30T03:08:55.171Z,0
2017-01-30T03:09:35.675Z,0
2017-01-30T03:10:16.189Z,0
2017-01-30T03:10:56.689Z,0
2017-01-30T03:11:37.228Z,0
2017-01-30T03:12:17.682Z,0
2017-01-30T03:12:58.164Z,0
2017-01-30T03:13:38.682Z,0
2017-01-30T03:14:19.176Z,0
2017-01-30T03:14:59.674Z,0
2017-01-30T03:15:40.154Z,0
2017-01-30T03:16:20.671Z,0
2017-01-30T03:17:01.146Z,0
2017-01-30T03:17:41.673Z,0
2017-01-30T03:18:22.143Z,0
2017-01-30T03:19:02.600Z,0
2017-01-30T03:19:43.076Z,0
2017-01-30T03:20:23.559Z,0
2017-01-30T03:21:04.058Z,0
2017-01-30T03:21:44.575Z,0
2017-01-30T03:22:25.046Z,0
2017-01-30T03:23:05.570Z,0
2017-01-30T03:23:46.079Z,0
2017-01-30T03:24:26.547Z,0
2017-01-30T03:25:07.025Z,0
2017-01-30T03:25:47.553Z,0
2017-01-30T03:26:28.027Z,0
2017-01-30T03:27:08.543Z,0
2017-01-30T03:27:49.035Z,0
2017-01-30T03:28:29.507Z,0
2017-01-30T03:29:10.022Z,0
2017-01-30T03:29:50.502Z,0
2017-01-30T03:30:30.997Z,0
2017-01-30T03:31:11.471Z,0
2017-01-30T03:31:51.987Z,0
2017-01-30T03:32:32.420Z,0
2017-01-30T03:33:12.931Z,0
2017-01-30T03:33:53.446Z,0
2017-01-30T03:34:33.888Z,0
2017-01-30T03:35:14.405Z,0
2017-01-30T03:35:54.907Z,0
2017-01-30T03:36:35.364Z,0
2017-01-30T03:37:16.135Z,0
2017-01-30T03:37:56.624Z,0
2017-01-30T03:38:37.133Z,0
2017-01-30T03:39:17.664Z,0
2017-01-30T03:39:58.129Z,0
2017-01-30T03:40:38.662Z,0
2017-01-30T03:41:19.165Z,0
2017-01-30T03:41:59.680Z,0
2017-01-30T03:42:40.278Z,0
2017-01-30T03:43:20.782Z,0
2017-01-30T03:44:01.248Z,0
2017-01-30T03:44:41.736Z,0
2017-01-30T03:45:22.244Z,0
2017-01-30T03:46:02.742Z,0
2017-01-30T03:46:43.209Z,0
2017-01-30T03:47:23.730Z,0
2017-01-30T03:48:04.196Z,0
2017-01-30T03:48:44.674Z,0
2017-01-30T03:49:25.121Z,0
2017-01-30T03:50:05.624Z,0
2017-01-30T03:50:46.118Z,0
2017-01-30T03:51:26.626Z,0
2017-01-30T03:52:07.105Z,0
2017-01-30T03:52:47.582Z,0
2017-01-30T03:53:28.209Z,0
2017-01-30T03:54:08.603Z,0
2017-01-30T03:54:49.109Z,0
2017-01-30T03:55:29.601Z,0
2017-01-30T03:56:10.092Z,0
2017-01-30T03:56:50.573Z,0
2017-01-30T03:57:31.060Z,0
2017-01-30T03:58:11.562Z,0
2017-01-30T03:58:52.031Z,0
2017-01-30T03:59:32.532Z,0
2017-01-30T04:00:13.057Z,0
2017-01-30T04:00:53.764Z,0
2017-01-30T04:01:34.074Z,0
2017-01-30T04:02:14.569Z,0
2017-01-30T04:02:55.074Z,0
2017-01-30T04:03:35.567Z,0
2017-01-30T04:04:16.035Z,0
2017-01-30T04:04:56.524Z,0
2017-01-30T04:05:36.964Z,0
2017-01-30T04:06:17.467Z,0
2017-01-30T04:06:57.978Z,0
2017-01-30T04:07:38.432Z,0
2017-01-30T04:08:18.976Z,0
2017-01-30T04:08:59.404Z,0
2017-01-30T04:09:39.908Z,0
2017-01-30T04:10:20.372Z,0
2017-01-30T04:11:00.861Z,0
2017-01-30T04:11:41.329Z,0
2017-01-30T04:12:21.851Z,0
2017-01-30T04:13:02.444Z,0
2017-01-30T04:13:42.832Z,0
2017-01-30T04:14:23.299Z,0
2017-01-30T04:15:03.775Z,0
2017-01-30T04:15:44.305Z,0
2017-01-30T04:16:24.774Z,0
2017-01-30T04:17:05.265Z,0
2017-01-30T04:17:45.764Z,0
2017-01-30T04:18:26.256Z,0
2017-01-30T04:19:06.736Z,0
2017-01-30T04:19:47.247Z,0
2017-01-30T04:20:27.696Z,0
2017-01-30T04:21:08.147Z,0
2017-01-30T04:21:48.671Z,0
2017-01-30T04:22:29.112Z,0
2017-01-30T04:23:09.598Z,0
2017-01-30T04:23:50.112Z,0
2017-01-30T04:24:30.581Z,0
2017-01-30T04:25:11.048Z,0
2017-01-30T04:25:51.565Z,0
2017-01-30T04:26:32.092Z,0
2017-01-30T04:27:12.546Z,0
2017-01-30T04:27:53.061Z,0
2017-01-30T04:28:33.531Z,0
2017-01-30T04:29:14.074Z,0
2017-01-30T04:29:54.542Z,0
2017-01-30T04:30:35.049Z,0
2017-01-30T04:31:15.540Z,0
2017-01-30T04:31:56.044Z,0
2017-01-30T04:32:36.479Z,0
2017-01-30T04:33:16.975Z,0
2017-01-30T04:33:57.430Z,0
2017-01-30T04:34:37.935Z,0
2017-01-30T04:35:18.417Z,0
2017-01-30T04:35:58.881Z,0
2017-01-30T04:36:39.370Z,0
2017-01-30T04:37:19.906Z,0
2017-01-30T04:38:00.307Z,0
2017-01-30T04:38:40.809Z,0
2017-01-30T04:39:21.276Z,0
2017-01-30T04:40:01.765Z,0
2017-01-30T04:40:42.269Z,0
2017-01-30T04:41:22.760Z,0
2017-01-30T04:42:03.266Z,0
2017-01-30T04:42:43.736Z,0
2017-01-30T04:43:24.205Z,0
2017-01-30T04:44:04.680Z,0
2017-01-30T04:44:45.166Z,0
2017-01-30T04:45:25.694Z,0
2017-01-30T04:46:06.169Z,0
2017-01-30T04:46:46.656Z,0
2017-01-30T04:47:27.202Z,0
2017-01-30T04:48:07.661Z,0
2017-01-30T04:48:48.183Z,0
2017-01-30T04:49:28.640Z,0
2017-01-30T04:50:09.193Z,0
2017-01-30T04:50:49.620Z,0
2017-01-30T04:51:30.091Z,0
2017-01-30T04:52:10.630Z,0
2017-01-30T04:52:51.077Z,0
2017-01-30T04:53:31.589Z,0
2017-01-30T04:54:12.063Z,0
2017-01-30T04:54:52.543Z,0
2017-01-30T04:55:33.043Z,0
2017-01-30T04:56:13.542Z,0
2017-01-30T04:56:54.052Z,0
2017-01-30T04:57:34.547Z,0
2017-01-30T04:58:15.121Z,0
2017-01-30T04:58:55.583Z,0
2017-01-30T04:59:36.082Z,0
2017-01-30T05:00:16.578Z,0
2017-01-30T05:00:57.005Z,0
2017-01-30T05:01:37.481Z,0
2017-01-30T05:02:18.012Z,0
2017-01-30T05:02:58.460Z,0
2017-01-30T05:03:38.949Z,0
2017-01-30T05:04:19.420Z,0
2017-01-30T05:04:59.909Z,0
2017-01-30T05:05:40.452Z,0
2017-01-30T05:06:20.894Z,0
2017-01-30T05:07:01.479Z,0
2017-01-30T05:07:42.011Z,0
2017-01-30T05:08:22.456Z,0
2017-01-30T05:09:02.948Z,0
2017-01-30T05:09:43.428Z,0
2017-01-30T05:10:23.918Z,0
2017-01-30T05:11:04.438Z,0
2017-01-30T05:11:44.924Z,0
2017-01-30T05:12:25.368Z,0
2017-01-30T05:13:05.859Z,0
2017-01-30T05:13:46.360Z,0
2017-01-30T05:14:26.871Z,0
2017-01-30T05:15:07.358Z,0
2017-01-30T05:15:47.842Z,0
2017-01-30T05:16:28.333Z,0
2017-01-30T05:17:08.809Z,0
2017-01-30T05:17:49.267Z,0
2017-01-30T05:18:29.767Z,0
2017-01-30T05:19:10.250Z,0
2017-01-30T05:19:50.746Z,0
2017-01-30T05:20:31.204Z,0
2017-01-30T05:21:11.685Z,0
2017-01-30T05:21:52.215Z,0
2017-01-30T05:22:32.680Z,0
2017-01-30T05:23:13.160Z,0
2017-01-30T05:23:53.649Z,0
2017-01-30T05:24:34.141Z,0
2017-01-30T05:25:14.611Z,0
2017-01-30T05:25:55.136Z,0
2017-01-30T05:26:35.635Z,0
2017-01-30T05:27:16.104Z,0
2017-01-30T05:27:56.562Z,0
2017-01-30T05:28:37.046Z,0
2017-01-30T05:29:17.580Z,0
2017-01-30T05:29:58.080Z,0
2017-01-30T05:30:38.541Z,0
2017-01-30T05:31:19.044Z,0
2017-01-30T05:31:59.498Z,0
2017-01-30T05:32:40.011Z,0
2017-01-30T05:33:20.499Z,0
2017-01-30T05:34:00.951Z,0
2017-01-30T05:34:41.428Z,0
2017-01-30T05:35:21.945Z,0
2017-01-30T05:36:02.453Z,0
2017-01-30T05:36:42.897Z,0
2017-01-30T05:37:23.359Z,0
2017-01-30T05:38:03.883Z,0
2017-01-30T05:38:44.348Z,0
2017-01-30T05:39:24.871Z,0
2017-01-30T05:40:05.370Z,0
2017-01-30T05:40:45.856Z,0
2017-01-30T05:41:26.334Z,0
2017-01-30T05:42:06.822Z,0
2017-01-30T05:42:47.316Z,0
2017-01-30T05:43:27.799Z,0
2017-01-30T05:44:08.275Z,0
2017-01-30T05:44:48.768Z,0
2017-01-30T05:45:29.235Z,0
2017-01-30T05:46:09.719Z,0
2017-01-30T05:46:50.211Z,0
2017-01-30T05:47:30.727Z,0
2017-01-30T05:48:11.154Z,0
2017-01-30T05:48:51.683Z,0
2017-01-30T05:49:32.178Z,0
2017-01-30T05:50:12.648Z,0
2017-01-30T05:50:53.135Z,0
2017-01-30T05:51:33.630Z,0
2017-01-30T05:52:14.146Z,0
2017-01-30T05:52:54.671Z,0
2017-01-30T05:53:35.141Z,0
2017-01-30T05:54:15.663Z,0
2017-01-30T05:54:56.122Z,0
2017-01-30T05:55:36.648Z,0
2017-01-30T05:56:17.092Z,0
2017-01-30T05:56:57.645Z,0
2017-01-30T05:57:38.128Z,0
2017-01-30T05:58:18.596Z,0
2017-01-30T05:58:59.093Z,0
2017-01-30T05:59:39.605Z,0
2017-01-30T06:00:20.109Z,0
2017-01-30T06:01:00.642Z,0
2017-01-30T06:01:41.040Z,0
2017-01-30T06:02:21.564Z,0
2017-01-30T06:03:02.099Z,0
2017-01-30T06:03:42.525Z,0
2017-01-30T06:04:23.035Z,0
2017-01-30T06:05:03.568Z,0
2017-01-30T06:05:44.063Z,0
2017-01-30T06:06:24.548Z,0
2017-01-30T06:07:05.110Z,0
2017-01-30T06:07:45.605Z,0
2017-01-30T06:08:26.124Z,0
2017-01-30T06:09:06.671Z,0
2017-01-30T06:09:47.123Z,0
2017-01-30T06:10:27.601Z,0
2017-01-30T06:11:08.090Z,0
2017-01-30T06:11:48.662Z,0
2017-01-30T06:12:29.120Z,0
2017-01-30T06:13:09.587Z,0
2017-01-30T06:13:50.071Z,0
2017-01-30T06:14:30.588Z,0
2017-01-30T06:15:11.750Z,0
2017-01-30T06:15:52.419Z,0
2017-01-30T06:16:32.922Z,0
2017-01-30T06:17:13.358Z,0
2017-01-30T06:17:57.750Z,0
2017-01-30T06:18:38.225Z,0
2017-01-30T06:19:18.746Z,0
2017-01-30T06:19:59.223Z,0
2017-01-30T06:20:39.711Z,0
2017-01-30T06:21:20.210Z,0
2017-01-30T06:22:00.761Z,0
2017-01-30T06:22:41.187Z,0
2017-01-30T06:23:21.778Z,0
2017-01-30T06:24:02.217Z,0
2017-01-30T06:24:42.681Z,0
2017-01-30T06:25:23.139Z,0
2017-01-30T06:26:03.654Z,0
2017-01-30T06:26:44.268Z,0
2017-01-30T06:27:24.816Z,0
2017-01-30T06:28:05.299Z,0
2017-01-30T06:28:45.820Z,0
2017-01-30T06:29:26.310Z,0
2017-01-30T06:30:06.803Z,0
2017-01-30T06:30:47.396Z,0
2017-01-30T06:31:27.942Z,0
2017-01-30T06:32:09.950Z,0
2017-01-30T06:32:57.264Z,0
2017-01-30T06:33:37.802Z,0
2017-01-30T06:34:18.498Z,0
2017-01-30T06:34:58.963Z,0
2017-01-30T06:35:40.146Z,0
2017-01-30T06:36:20.836Z,0
2017-01-30T06:37:01.481Z,0
2017-01-30T06:37:42.076Z,0
2017-01-30T06:38:22.553Z,0
2017-01-30T06:39:03.397Z,0
2017-01-30T06:39:43.923Z,0
2017-01-30T06:40:24.352Z,0
2017-01-30T06:41:05.035Z,0
2017-01-30T06:41:45.523Z,0
2017-01-30T06:42:26.114Z,0
2017-01-30T06:43:06.913Z,0
2017-01-30T06:43:47.483Z,0
2017-01-30T06:44:27.976Z,0
2017-01-30T06:45:08.463Z,0
2017-01-30T06:45:49.001Z,0
2017-01-30T06:48:24.943Z,0
2017-01-30T06:49:05.459Z,0
2017-01-30T06:49:45.971Z,0
2017-01-30T06:50:26.428Z,0
2017-01-30T06:51:06.925Z,0
2017-01-30T06:51:47.485Z,0
2017-01-30T06:52:27.936Z,0
2017-01-30T06:53:08.429Z,0
2017-01-30T06:53:48.888Z,0
2017-01-30T06:54:29.424Z,0
2017-01-30T06:55:09.962Z,0
2017-01-30T06:55:50.411Z,0
2017-01-30T06:56:31.102Z,0
2017-01-30T06:57:11.600Z,0
2017-01-30T06:57:52.043Z,0
2017-01-30T06:58:32.616Z,0
2017-01-30T06:59:13.046Z,0
2017-01-30T06:59:53.538Z,0
2017-01-30T07:00:34.068Z,0
2017-01-30T07:01:14.544Z,0
2017-01-30T07:01:55.041Z,0
2017-01-30T07:02:35.527Z,0
2017-01-30T07:03:15.999Z,0
2017-01-30T07:03:56.497Z,0
2017-01-30T07:04:36.993Z,0
2017-01-30T07:05:17.522Z,0
2017-01-30T07:05:58.619Z,0
2017-01-30T07:06:39.127Z,0
2017-01-30T07:07:19.550Z,0
2017-01-30T07:08:00.011Z,0
2017-01-30T07:08:40.478Z,0
2017-01-30T07:09:21.033Z,0
2017-01-30T07:10:01.496Z,0
2017-01-30T07:10:42.031Z,0
2017-01-30T07:11:22.430Z,0
2017-01-30T07:12:02.919Z,0
2017-01-30T07:12:43.451Z,0
2017-01-30T07:13:23.944Z,0
2017-01-30T07:14:04.425Z,0
2017-01-30T07:14:44.936Z,0
2017-01-30T07:15:25.449Z,0
2017-01-30T07:16:05.964Z,0
2017-01-30T07:16:46.436Z,0
2017-01-30T07:17:26.938Z,0
2017-01-30T07:18:07.445Z,0
2017-01-30T07:18:47.990Z,0
2017-01-30T07:19:28.394Z,5
2017-01-30T07:20:08.940Z,5
2017-01-30T07:20:49.398Z,5
2017-01-30T07:21:29.861Z,5
2017-01-30T07:22:10.510Z,5
2017-01-30T07:22:50.924Z,5
2017-01-30T07:23:31.469Z,5
2017-01-30T07:24:14.535Z,5
2017-01-30T07:24:54.979Z,10
2017-01-30T07:25:35.493Z,10
2017-01-30T07:26:16.100Z,10
2017-01-30T07:26:56.502Z,10
2017-01-30T07:27:37.157Z,15
2017-01-30T07:28:17.691Z,15
2017-01-30T07:28:58.240Z,15
2017-01-30T07:29:38.745Z,20
2017-01-30T07:30:19.692Z,20
2017-01-30T07:31:02.565Z,20
2017-01-30T07:31:43.127Z,20
2017-01-30T07:32:23.679Z,15
2017-01-30T07:33:04.162Z,15
2017-01-30T07:33:44.967Z,15
2017-01-30T07:34:25.471Z,15
2017-01-30T07:35:05.980Z,15
2017-01-30T07:35:46.437Z,15
2017-01-30T07:36:26.888Z,15
2017-01-30T07:37:07.456Z,15
2017-01-30T07:37:47.928Z,20
2017-01-30T07:38:28.404Z,20
2017-01-30T07:39:08.879Z,20
2017-01-30T07:39:49.352Z,25
2017-01-30T07:40:29.814Z,25
2017-01-30T07:41:10.531Z,25
2017-01-30T07:41:50.967Z,25
2017-01-30T07:42:31.450Z,25
2017-01-30T07:43:11.912Z,25
2017-01-30T07:43:52.452Z,25
2017-01-30T07:44:32.901Z,25
2017-01-30T07:45:13.408Z,25
2017-01-30T07:45:53.873Z,25
2017-01-30T07:46:34.365Z,25
2017-01-30T07:47:14.818Z,25
2017-01-30T07:47:55.336Z,20
2017-01-30T07:48:35.805Z,20
2017-01-30T07:49:16.263Z,20
2017-01-30T07:49:56.784Z,20
2017-01-30T07:50:37.272Z,20
2017-01-30T07:51:17.798Z,15
2017-01-30T07:51:58.243Z,15
2017-01-30T07:52:38.710Z,15
2017-01-30T07:53:19.216Z,15
2017-01-30T07:53:59.690Z,15
2017-01-30T07:54:40.161Z,15
2017-01-30T07:55:20.680Z,15
2017-01-30T07:56:01.163Z,15
2017-01-30T07:56:41.646Z,15
2017-01-30T07:57:22.118Z,15
2017-01-30T07:58:02.596Z,15
2017-01-30T07:58:43.099Z,15
2017-01-30T07:59:23.603Z,15
2017-01-30T08:00:04.089Z,15
2017-01-30T08:00:44.565Z,15
2017-01-30T08:01:25.054Z,20
2017-01-30T08:02:05.569Z,20
2017-01-30T08:02:46.036Z,20
2017-01-30T08:03:26.536Z,20
2017-01-30T08:04:06.994Z,20
2017-01-30T08:04:47.488Z,20
2017-01-30T08:05:27.959Z,20
2017-01-30T08:06:08.440Z,20
2017-01-30T08:06:48.938Z,20
2017-01-30T08:07:29.454Z,20
2017-01-30T08:08:09.908Z,20
2017-01-30T08:08:50.363Z,20
2017-01-30T08:09:30.891Z,20
2017-01-30T08:10:11.358Z,20
2017-01-30T08:10:51.829Z,20
2017-01-30T08:11:32.442Z,20
2017-01-30T08:12:12.938Z,20
2017-01-30T08:12:53.397Z,20
2017-01-30T08:13:33.868Z,20
2017-01-30T08:14:14.378Z,15
2017-01-30T08:14:55.156Z,15
2017-01-30T08:15:35.745Z,15
2017-01-30T08:16:16.215Z,15
2017-01-30T08:16:56.690Z,15
2017-01-30T08:17:37.132Z,15
2017-01-30T08:18:17.663Z,15
2017-01-30T08:18:58.179Z,15
2017-01-30T08:19:38.714Z,15
2017-01-30T08:20:19.170Z,15
2017-01-30T08:20:59.645Z,15
2017-01-30T08:21:40.128Z,20
2017-01-30T08:22:20.648Z,20
2017-01-30T08:23:01.168Z,20
2017-01-30T08:23:41.641Z,20
2017-01-30T08:24:22.140Z,20
2017-01-30T08:25:02.655Z,20
2017-01-30T08:25:43.134Z,20
2017-01-30T08:26:23.656Z,20
2017-01-30T08:27:04.125Z,25
2017-01-30T08:27:44.656Z,25
2017-01-30T08:28:25.166Z,25
2017-01-30T08:29:05.655Z,25
2017-01-30T08:29:46.143Z,30
2017-01-30T08:30:26.648Z,30
2017-01-30T08:31:07.107Z,30
2017-01-30T08:31:47.598Z,30
2017-01-30T08:32:28.113Z,30
2017-01-30T08:33:08.601Z,35
2017-01-30T08:33:49.066Z,35
2017-01-30T08:34:29.613Z,35
2017-01-30T08:35:10.069Z,35
2017-01-30T08:35:50.566Z,35
2017-01-30T08:36:31.080Z,35
2017-01-30T08:37:11.542Z,35
2017-01-30T08:37:52.030Z,35
2017-01-30T08:38:32.543Z,35
2017-01-30T08:39:13.019Z,35
2017-01-30T08:39:53.536Z,35
2017-01-30T08:40:34.047Z,35
2017-01-30T08:41:14.488Z,35
2017-01-30T08:41:55.017Z,35
2017-01-30T08:42:35.462Z,35
2017-01-30T08:43:16.000Z,35
2017-01-30T08:43:56.478Z,35
2017-01-30T08:44:36.982Z,35
2017-01-30T08:45:17.436Z,35
2017-01-30T08:45:57.971Z,40
2017-01-30T08:46:38.435Z,40
2017-01-30T08:47:18.944Z,45
2017-01-30T08:47:59.405Z,45
2017-01-30T08:48:39.915Z,45
2017-01-30T08:49:20.394Z,45
2017-01-30T08:50:00.908Z,45
2017-01-30T08:50:41.380Z,45
2017-01-30T08:51:21.878Z,40
2017-01-30T08:52:02.354Z,40
2017-01-30T08:52:42.877Z,40
2017-01-30T08:53:23.369Z,40
2017-01-30T08:54:03.891Z,40
2017-01-30T08:54:44.415Z,40
2017-01-30T08:55:24.878Z,40
2017-01-30T08:56:05.380Z,40
2017-01-30T08:56:45.884Z,40
2017-01-30T08:57:26.380Z,45
2017-01-30T08:58:06.832Z,45
2017-01-30T08:58:47.330Z,45
2017-01-30T08:59:27.823Z,45
2017-01-30T09:00:08.330Z,45
2017-01-30T09:00:48.841Z,45
2017-01-30T09:01:29.364Z,45
2017-01-30T09:02:09.840Z,45
2017-01-30T09:02:50.368Z,45
2017-01-30T09:03:30.840Z,45
2017-01-30T09:04:12.223Z,45
2017-01-30T09:04:51.833Z,45
2017-01-30T09:05:32.329Z,40
2017-01-30T09:06:12.819Z,40
2017-01-30T09:06:53.302Z,40
2017-01-30T09:07:33.776Z,40
2017-01-30T09:08:14.276Z,40
2017-01-30T09:08:54.828Z,35
2017-01-30T09:09:35.301Z,35
2017-01-30T09:10:15.819Z,35
2017-01-30T09:10:56.283Z,35
2017-01-30T09:11:36.772Z,30
2017-01-30T09:12:17.306Z,35
2017-01-30T09:12:57.758Z,35
2017-01-30T09:13:38.268Z,35
2017-01-30T09:14:18.701Z,35
2017-01-30T09:14:59.240Z,35
2017-01-30T09:15:39.755Z,35
2017-01-30T09:16:20.229Z,35
2017-01-30T09:17:00.682Z,40
2017-01-30T09:17:41.193Z,40
2017-01-30T09:18:21.671Z,45
2017-01-30T09:19:02.239Z,50
2017-01-30T09:19:42.729Z,55
2017-01-30T09:20:23.236Z,60
2017-01-30T09:21:03.713Z,65
2017-01-30T09:21:44.194Z,65
2017-01-30T09:22:24.673Z,70
2017-01-30T09:23:05.161Z,75
2017-01-30T09:23:45.657Z,75
2017-01-30T09:24:26.136Z,70
2017-01-30T09:25:06.670Z,65
2017-01-30T09:25:47.083Z,65
2017-01-30T09:26:27.596Z,60
2017-01-30T09:27:08.068Z,55
2017-01-30T09:27:48.553Z,55
2017-01-30T09:28:29.040Z,55
2017-01-30T09:29:09.516Z,55
2017-01-30T09:29:50.035Z,55
2017-01-30T09:30:30.509Z,55
2017-01-30T09:31:11.006Z,55
2017-01-30T09:31:51.533Z,55
2017-01-30T09:32:31.999Z,55
2017-01-30T09:33:12.518Z,60
2017-01-30T09:33:53.066Z,60
2017-01-30T09:34:33.481Z,60
2017-01-30T09:35:13.994Z,60
2017-01-30T09:35:54.486Z,60
2017-01-30T09:36:34.981Z,65
2017-01-30T09:37:15.444Z,60
2017-01-30T09:37:55.956Z,60
2017-01-30T09:38:36.441Z,60
2017-01-30T09:39:16.928Z,60
2017-01-30T09:39:57.387Z,55
2017-01-30T09:40:37.907Z,55
2017-01-30T09:41:18.376Z,50
2017-01-30T09:41:58.894Z,50
2017-01-30T09:42:39.423Z,50
2017-01-30T09:43:19.884Z,50
2017-01-30T09:44:00.422Z,50
2017-01-30T09:44:40.868Z,50
2017-01-30T09:45:21.384Z,50
2017-01-30T09:46:01.870Z,50
2017-01-30T09:46:42.394Z,50
2017-01-30T09:47:22.917Z,50
2017-01-30T09:48:03.395Z,50
2017-01-30T09:48:43.889Z,50
2017-01-30T09:49:24.389Z,50
2017-01-30T09:50:04.861Z,50
2017-01-30T09:50:45.351Z,50
2017-01-30T09:51:25.825Z,50
2017-01-30T09:52:06.318Z,50
2017-01-30T09:52:46.808Z,55
2017-01-30T09:53:27.323Z,55
2017-01-30T09:54:07.767Z,55
2017-01-30T09:54:48.265Z,60
2017-01-30T09:55:28.757Z,60
2017-01-30T09:56:09.298Z,65
2017-01-30T09:56:49.746Z,65
2017-01-30T09:57:30.240Z,65
2017-01-30T09:58:10.753Z,65
2017-01-30T09:58:51.284Z,70